Time;durP1;ratioP1;P1;durP2;ratioP2;P2;SDS_P1;SDS_P2;PMS_P1;PMS_P2;Temp;Humidity;BMP_temperature;BMP_pressure;BME280_temperature;BME280_humidity;BME280_pressure;Samples;Min_cycle;Max_cycle;Signal;HPM_P1;HPM_P2
2023/09/18 00:00:22;;;;;;;25.77;17.60;;;;;;;17.96;100.00;100507.09;5095109;28;20039;-74
2023/09/18 00:02:48;;;;;;;25.80;17.70;;;;;;;17.94;100.00;100501.81;5094871;28;20494;-73
2023/09/18 00:05:15;;;;;;;26.27;18.25;;;;;;;17.99;100.00;100498.13;5094562;28;20062;-74
2023/09/18 00:07:44;;;;;;;25.60;18.08;;;;;;;17.93;100.00;100492.03;5095237;28;20028;-75
2023/09/18 00:10:11;;;;;;;25.92;17.40;;;;;;;17.91;100.00;100490.31;5094818;28;20131;-73
2023/09/18 00:12:37;;;;;;;26.05;16.92;;;;;;;17.89;100.00;100489.47;5094793;28;20027;-72
2023/09/18 00:15:03;;;;;;;25.40;16.15;;;;;;;17.83;100.00;100485.19;5094882;28;20467;-73
2023/09/18 00:17:28;;;;;;;24.58;16.88;;;;;;;17.82;100.00;100487.91;5094887;28;20067;-73
2023/09/18 00:19:54;;;;;;;25.48;17.40;;;;;;;17.82;100.00;100475.41;5094692;28;20448;-75
2023/09/18 00:22:20;;;;;;;25.77;17.13;;;;;;;17.81;100.00;100467.44;5094770;28;20035;-75
2023/09/18 00:24:46;;;;;;;25.83;16.70;;;;;;;17.81;100.00;100462.09;5094615;28;20032;-62
2023/09/18 00:27:11;;;;;;;26.35;17.30;;;;;;;17.84;100.00;100451.28;5094655;28;20032;-64
2023/09/18 00:29:37;;;;;;;25.80;17.30;;;;;;;17.83;100.00;100450.44;5094829;28;20039;-63
2023/09/18 00:32:02;;;;;;;25.52;17.80;;;;;;;17.86;100.00;100449.47;5094466;28;20053;-63
2023/09/18 00:34:31;;;;;;;25.33;17.52;;;;;;;17.92;100.00;100446.63;5094286;28;20024;-61
2023/09/18 00:36:57;;;;;;;25.80;17.77;;;;;;;17.89;100.00;100441.34;5094447;28;20027;-64
2023/09/18 00:39:22;;;;;;;26.20;18.45;;;;;;;17.92;100.00;100430.56;5094159;28;20058;-64
2023/09/18 00:41:51;;;;;;;25.15;17.00;;;;;;;17.94;100.00;100434.09;5094158;28;20056;-63
2023/09/18 00:44:16;;;;;;;25.25;17.52;;;;;;;17.91;100.00;100423.47;5094313;28;20020;-64
2023/09/18 00:46:43;;;;;;;25.92;17.25;;;;;;;17.90;100.00;100421.75;5093975;28;20395;-63
2023/09/18 00:49:09;;;;;;;25.85;17.42;;;;;;;17.87;100.00;100411.13;5094218;28;20123;-64
2023/09/18 00:51:34;;;;;;;26.05;16.20;;;;;;;17.84;100.00;100417.44;5092970;28;20020;-64
2023/09/18 00:54:00;;;;;;;25.63;16.50;;;;;;;17.84;100.00;100413.88;5092654;28;20035;-64
2023/09/18 00:56:25;;;;;;;25.58;16.45;;;;;;;17.81;100.00;100405.94;5094023;28;20020;-63
2023/09/18 00:58:52;;;;;;;27.10;17.42;;;;;;;17.86;100.00;100410.22;5093061;28;20028;-64
2023/09/18 01:01:22;;;;;;;26.33;17.60;;;;;;;17.96;100.00;100401.97;5093734;28;20390;-64
2023/09/18 01:03:50;;;;;;;25.40;17.45;;;;;;;18.02;100.00;100399.06;5093500;28;20024;-64
2023/09/18 01:06:15;;;;;;;25.45;17.20;;;;;;;18.06;100.00;100398.91;5093821;28;20028;-64
2023/09/18 01:08:41;;;;;;;27.75;16.80;;;;;;;18.09;100.00;100389.91;5093598;28;20035;-64
2023/09/18 01:11:18;;;;;;;25.67;16.45;;;;;;;18.13;100.00;100378.19;5093693;28;20020;-64
2023/09/18 01:14:03;;;;;;;24.60;15.68;;;;;;;18.20;100.00;100376.16;5091201;28;20032;-65
2023/09/18 01:16:36;;;;;;;26.98;15.93;;;;;;;18.25;100.00;100374.22;5093646;28;20059;-64
2023/09/18 01:19:03;;;;;;;25.10;15.00;;;;;;;18.27;100.00;100357.16;5089396;28;20030;-63
2023/09/18 01:21:28;;;;;;;24.08;14.63;;;;;;;18.29;100.00;100341.94;5093371;28;20027;-64
2023/09/18 01:23:54;;;;;;;23.80;14.35;;;;;;;18.32;100.00;100351.66;5093480;28;20382;-64
2023/09/18 01:26:19;;;;;;;22.92;13.95;;;;;;;18.34;100.00;100357.81;5093199;28;20040;-64
2023/09/18 01:28:45;;;;;;;23.58;13.88;;;;;;;18.38;100.00;100370.16;5093209;28;20036;-63
2023/09/18 01:31:10;;;;;;;25.50;13.60;;;;;;;18.38;100.00;100351.44;5093449;28;20062;-63
2023/09/18 01:33:37;;;;;;;22.90;12.63;;;;;;;18.38;100.00;100356.78;5093243;28;20075;-64
2023/09/18 01:36:03;;;;;;;22.98;12.52;;;;;;;18.40;100.00;100359.41;5089039;28;20115;-64
2023/09/18 01:38:29;;;;;;;23.33;12.20;;;;;;;18.41;100.00;100364.72;5093343;28;20110;-66
2023/09/18 01:40:55;;;;;;;22.55;11.77;;;;;;;18.44;100.00;100361.06;5093102;28;20024;-69
2023/09/18 01:43:20;;;;;;;24.30;12.15;;;;;;;18.43;100.00;100367.31;5093370;28;20442;-69
2023/09/18 01:45:47;;;;;;;22.45;11.55;;;;;;;18.43;100.00;100359.31;5093114;28;20115;-67
2023/09/18 01:48:13;;;;;;;24.25;11.50;;;;;;;18.44;100.00;100366.41;5092956;28;20024;-67
2023/09/18 01:50:40;;;;;;;22.08;11.13;;;;;;;18.45;100.00;100355.66;5093222;28;20066;-68
2023/09/18 01:53:06;;;;;;;22.33;11.57;;;;;;;18.45;100.00;100361.00;5093133;28;20538;-67
2023/09/18 01:55:32;;;;;;;21.95;11.05;;;;;;;18.54;100.00;100359.78;5092821;28;20070;-68
2023/09/18 01:57:58;;;;;;;21.42;10.55;;;;;;;18.58;100.00;100344.47;5092734;28;20549;-68
2023/09/18 02:00:23;;;;;;;22.83;10.38;;;;;;;18.62;100.00;100348.78;5092968;28;20044;-68
2023/09/18 02:02:49;;;;;;;21.83;10.48;;;;;;;18.64;100.00;100338.91;5092993;28;20047;-70
2023/09/18 02:05:14;;;;;;;23.02;10.05;;;;;;;18.64;100.00;100342.47;5092490;28;20101;-67
2023/09/18 02:07:39;;;;;;;21.45;9.18;;;;;;;18.68;100.00;100327.16;5093138;28;20028;-66
2023/09/18 02:10:05;;;;;;;21.58;9.65;;;;;;;18.67;100.00;100325.41;5092416;28;20111;-68
2023/09/18 02:12:31;;;;;;;21.20;9.85;;;;;;;18.68;100.00;100329.81;5092673;28;20024;-66
2023/09/18 02:14:58;;;;;;;21.30;9.32;;;;;;;18.71;100.00;100335.09;5092837;28;20031;-75
2023/09/18 02:17:23;;;;;;;21.88;9.43;;;;;;;18.73;100.00;100335.88;5092676;28;20028;-76
2023/09/18 02:19:49;;;;;;;20.23;8.82;;;;;;;18.77;100.00;100333.97;5092821;28;20074;-75
2023/09/18 02:22:15;;;;;;;20.75;9.27;;;;;;;18.78;100.00;100325.88;5092630;28;20116;-75
2023/09/18 02:24:40;;;;;;;20.90;8.90;;;;;;;18.81;100.00;100315.06;5092823;28;20516;-76
2023/09/18 02:27:06;;;;;;;20.65;8.77;;;;;;;18.84;100.00;100298.00;5091368;28;20048;-73
2023/09/18 02:29:31;;;;;;;21.55;8.40;;;;;;;18.84;100.00;100297.13;5092642;28;20107;-71
2023/09/18 02:31:56;;;;;;;20.15;8.30;;;;;;;18.82;100.00;100292.69;5092457;28;20111;-76
2023/09/18 02:34:22;;;;;;;20.08;8.35;;;;;;;18.81;100.00;100274.91;5091488;28;20037;-73
2023/09/18 02:36:47;;;;;;;22.27;8.63;;;;;;;18.80;100.00;100274.97;5091306;28;20036;-76
2023/09/18 02:39:13;;;;;;;24.02;8.73;;;;;;;18.76;100.00;100273.34;5092459;28;20034;-76
2023/09/18 02:41:38;;;;;;;20.38;8.57;;;;;;;18.74;100.00;100276.06;5092678;28;20036;-66
2023/09/18 02:44:04;;;;;;;21.48;8.23;;;;;;;18.75;100.00;100280.47;5092346;28;20032;-68
2023/09/18 02:46:29;;;;;;;20.90;8.43;;;;;;;18.74;100.00;100276.06;5092292;28;20028;-69
2023/09/18 02:48:55;;;;;;;20.77;8.82;;;;;;;18.74;100.00;100254.66;5092581;28;20032;-71
2023/09/18 02:51:20;;;;;;;21.10;8.70;;;;;;;18.72;100.00;100256.50;5092350;28;20077;-75
2023/09/18 02:53:45;;;;;;;20.45;8.95;;;;;;;18.74;100.00;100253.75;5092288;28;20032;-67
2023/09/18 02:56:11;;;;;;;22.73;8.57;;;;;;;18.82;100.00;100251.66;5092423;28;20103;-72
2023/09/18 02:58:36;;;;;;;21.02;8.18;;;;;;;18.88;100.00;100250.59;5092172;28;20153;-71
2023/09/18 03:01:03;;;;;;;20.58;8.02;;;;;;;18.89;100.00;100239.81;5092400;28;20036;-68
2023/09/18 03:03:29;;;;;;;20.90;8.10;;;;;;;18.93;100.00;100230.75;5092210;28;20132;-69
2023/09/18 03:06:02;;;;;;;20.88;7.50;;;;;;;18.99;100.00;100221.59;5091921;28;20557;-70
2023/09/18 03:08:28;;;;;;;21.67;7.60;;;;;;;19.09;100.00;100228.31;5092120;28;20433;-69
2023/09/18 03:10:54;;;;;;;21.75;7.55;;;;;;;19.12;100.00;100208.53;5092370;28;20077;-71
2023/09/18 03:13:19;;;;;;;22.10;7.60;;;;;;;19.11;100.00;100199.66;5092176;28;20490;-69
2023/09/18 03:15:48;;;;;;;21.90;7.88;;;;;;;19.08;100.00;100210.50;5092255;28;20060;-67
2023/09/18 03:18:14;;;;;;;20.63;7.55;;;;;;;19.10;100.00;100221.13;5092363;28;20101;-71
2023/09/18 03:20:39;;;;;;;20.85;7.50;;;;;;;19.12;100.00;100196.03;5092220;28;20660;-70
2023/09/18 03:23:05;;;;;;;22.38;8.10;;;;;;;19.09;100.00;100206.88;5095987;28;20039;-72
2023/09/18 03:25:30;;;;;;;22.83;7.88;;;;;;;19.06;100.00;100223.09;5095757;28;20506;-70
2023/09/18 03:27:57;;;;;;;20.85;7.68;;;;;;;19.07;100.00;100224.81;5095565;28;20430;-64
2023/09/18 03:30:23;;;;;;;21.52;7.90;;;;;;;19.09;100.00;100219.38;5095830;28;20032;-67
2023/09/18 03:32:50;;;;;;;20.50;7.50;;;;;;;19.11;100.00;100218.41;5095477;28;20028;-75
2023/09/18 03:35:18;;;;;;;20.95;7.68;;;;;;;19.11;100.00;100221.06;5095741;28;20044;-69
2023/09/18 03:37:53;;;;;;;21.63;7.82;;;;;;;19.09;100.00;100228.31;5095641;28;20093;-75
2023/09/18 03:40:19;;;;;;;22.60;8.15;;;;;;;19.16;100.00;100234.28;5095543;28;20028;-71
2023/09/18 03:42:46;;;;;;;21.40;7.97;;;;;;;19.24;100.00;100231.31;5095329;28;20074;-64
2023/09/18 03:45:11;;;;;;;21.23;8.55;;;;;;;19.28;100.00;100216.81;5095142;28;20467;-64
2023/09/18 03:47:39;;;;;;;20.52;8.25;;;;;;;19.30;100.00;100231.03;5095505;28;20031;-61
2023/09/18 03:50:08;;;;;;;20.90;8.63;;;;;;;19.26;100.00;100253.53;5091098;28;20073;-63
2023/09/18 03:52:34;;;;;;;22.20;8.60;;;;;;;19.28;100.00;100246.28;5091017;28;20475;-64
2023/09/18 03:54:59;;;;;;;21.13;8.50;;;;;;;19.30;100.00;100231.91;5095193;28;20035;-63
2023/09/18 03:57:25;;;;;;;19.67;8.00;;;;;;;19.27;100.00;100220.44;5094937;28;20028;-61
2023/09/18 03:59:51;;;;;;;21.17;8.35;;;;;;;19.15;100.00;100221.84;5095227;28;20455;-63
2023/09/18 04:02:16;;;;;;;21.60;9.10;;;;;;;19.04;100.00;100219.56;5095117;28;20149;-64
2023/09/18 04:04:41;;;;;;;21.48;9.07;;;;;;;19.01;100.00;100246.50;5093369;28;20051;-63
2023/09/18 04:07:07;;;;;;;21.45;8.90;;;;;;;19.04;100.00;100262.44;5094727;28;20075;-61
2023/09/18 04:09:35;;;;;;;20.98;8.93;;;;;;;18.97;100.00;100266.28;5094905;28;20059;-62
2023/09/18 04:12:02;;;;;;;21.65;8.55;;;;;;;19.08;100.00;100264.06;5094934;28;20028;-63
2023/09/18 04:14:27;;;;;;;21.73;9.27;;;;;;;19.03;100.00;100260.69;5094662;28;20398;-62
2023/09/18 04:16:52;;;;;;;21.95;9.32;;;;;;;18.97;100.00;100255.56;5094762;28;20036;-62
2023/09/18 04:19:18;;;;;;;21.80;9.13;;;;;;;18.78;100.00;100250.91;5094664;28;20467;-61
2023/09/18 04:21:43;;;;;;;21.40;9.52;;;;;;;18.75;100.00;100247.50;5094624;28;20036;-60
2023/09/18 04:24:09;;;;;;;20.95;9.77;;;;;;;18.70;100.00;100247.66;5094747;28;20028;-63
2023/09/18 04:26:34;;;;;;;23.33;10.23;;;;;;;18.67;100.00;100237.09;5094411;28;20060;-76
2023/09/18 04:29:00;;;;;;;23.13;10.25;;;;;;;18.68;100.00;100228.09;5094546;28;20032;-76
2023/09/18 04:31:27;;;;;;;21.63;9.70;;;;;;;18.67;100.00;100229.06;5094446;28;20028;-76
2023/09/18 04:33:52;;;;;;;22.73;10.55;;;;;;;18.67;100.00;100230.84;5094186;28;20024;-74
2023/09/18 04:36:18;;;;;;;21.55;10.05;;;;;;;18.70;100.00;100230.72;5094432;28;20035;-75
2023/09/18 04:38:43;;;;;;;22.20;10.57;;;;;;;18.68;100.00;100230.78;5094164;28;20481;-75
2023/09/18 04:41:10;;;;;;;22.27;10.30;;;;;;;18.69;100.00;100213.78;5094415;28;20459;-70
2023/09/18 04:43:36;;;;;;;21.17;10.60;;;;;;;18.66;100.00;100192.50;5090649;28;20031;-70
2023/09/18 04:46:04;;;;;;;22.67;10.48;;;;;;;18.65;100.00;100185.41;5093963;28;20432;-75
2023/09/18 04:48:29;;;;;;;22.40;10.38;;;;;;;18.61;100.00;100179.31;5094041;28;20058;-65
2023/09/18 04:50:55;;;;;;;23.48;10.90;;;;;;;18.56;100.00;100178.59;5094088;28;20032;-76
2023/09/18 04:53:21;;;;;;;22.38;10.85;;;;;;;18.51;100.00;100172.59;5093959;28;20028;-72
2023/09/18 04:55:49;;;;;;;22.17;10.68;;;;;;;18.46;100.00;100177.22;5094087;28;20028;-73
2023/09/18 04:58:15;;;;;;;22.05;10.95;;;;;;;18.43;100.00;100180.88;5093843;28;20016;-73
2023/09/18 05:00:41;;;;;;;22.33;11.32;;;;;;;18.43;100.00;100175.53;5093857;28;20043;-71
2023/09/18 05:03:08;;;;;;;23.13;11.73;;;;;;;18.43;100.00;100175.53;5093775;28;20115;-76
2023/09/18 05:05:34;;;;;;;22.88;11.68;;;;;;;18.41;100.00;100172.06;5093635;28;20502;-76
2023/09/18 05:07:59;;;;;;;24.20;12.10;;;;;;;18.36;100.00;100173.16;5093620;28;20081;-76
2023/09/18 05:10:24;;;;;;;23.95;12.40;;;;;;;18.37;100.00;100170.44;5093631;28;20364;-70
2023/09/18 05:12:50;;;;;;;23.85;11.77;;;;;;;18.36;100.00;100183.88;5092790;28;20035;-76
2023/09/18 05:15:16;;;;;;;23.15;11.50;;;;;;;18.35;100.00;100183.00;5093454;28;20032;-72
2023/09/18 05:17:51;;;;;;;24.42;11.38;;;;;;;18.38;100.00;100182.88;5092171;28;20073;-75
2023/09/18 05:20:18;;;;;;;21.48;9.35;;;;;;;18.36;100.00;100187.41;5093648;28;20024;-73
2023/09/18 05:22:44;;;;;;;18.75;7.28;;;;;;;18.39;100.00;100200.69;5093376;28;20073;-73
2023/09/18 05:25:14;;;;;;;19.83;7.47;;;;;;;18.41;100.00;100195.28;5093589;28;20032;-67
2023/09/18 05:27:43;;;;;;;18.55;6.63;;;;;;;18.45;100.00;100188.88;5089967;28;20035;-72
2023/09/18 05:30:14;;;;;;;17.52;6.03;;;;;;;18.46;100.00;100193.28;5093160;28;20395;-73
2023/09/18 05:32:41;;;;;;;17.58;5.60;;;;;;;18.44;100.00;100182.63;5089821;28;20031;-73
2023/09/18 05:35:06;;;;;;;15.82;5.60;;;;;;;18.45;100.00;100181.72;5093074;28;20031;-74
2023/09/18 05:37:32;;;;;;;17.40;5.20;;;;;;;18.50;100.00;100176.19;5093264;28;20032;-76
2023/09/18 05:39:58;;;;;;;18.23;5.13;;;;;;;18.50;100.00;100176.19;5088015;28;20478;-70
2023/09/18 05:42:23;;;;;;;16.70;4.85;;;;;;;18.50;100.00;100175.31;5089961;28;20115;-64
2023/09/18 05:44:49;;;;;;;14.98;4.55;;;;;;;18.49;100.00;100162.88;5092158;28;20055;-61
2023/09/18 05:47:14;;;;;;;13.48;4.25;;;;;;;18.51;100.00;100164.56;5092085;28;20035;-64
2023/09/18 05:49:39;;;;;;;17.35;4.50;;;;;;;18.44;100.00;100171.94;5092936;28;20113;-62
2023/09/18 05:52:05;;;;;;;14.32;4.18;;;;;;;18.39;100.00;100189.09;5093025;28;20032;-61
2023/09/18 05:54:30;;;;;;;12.73;4.05;;;;;;;18.40;100.00;100174.78;5092631;28;20390;-61
2023/09/18 05:56:56;;;;;;;13.30;3.67;;;;;;;18.38;100.00;100187.38;5092783;28;20032;-62
2023/09/18 05:59:21;;;;;;;10.93;3.60;;;;;;;18.42;100.00;100195.22;5092620;28;20035;-63
2023/09/18 06:01:48;;;;;;;13.98;3.60;;;;;;;18.41;100.00;100188.13;5092838;28;20071;-61
2023/09/18 06:04:13;;;;;;;12.85;3.40;;;;;;;18.36;100.00;100190.06;5092756;28;20054;-61
2023/09/18 06:06:39;;;;;;;12.63;3.55;;;;;;;18.41;100.00;100188.13;5092636;28;20463;-62
2023/09/18 06:09:04;;;;;;;9.32;3.10;;;;;;;18.45;100.00;100192.41;5092631;28;20446;-62
2023/09/18 06:11:30;;;;;;;12.15;3.40;;;;;;;18.39;100.00;100192.66;5092674;28;20417;-62
2023/09/18 06:13:55;;;;;;;14.05;3.42;;;;;;;18.38;100.00;100204.28;5092592;28;20103;-62
2023/09/18 06:16:20;;;;;;;7.63;2.90;;;;;;;18.38;100.00;100209.63;5092534;28;20028;-60
2023/09/18 06:18:46;;;;;;;11.38;3.20;;;;;;;18.33;100.00;100197.38;5087861;28;20040;-62
2023/09/18 06:21:11;;;;;;;11.52;3.15;;;;;;;18.28;100.00;100205.56;5087297;28;20035;-62
2023/09/18 06:23:37;;;;;;;11.90;3.25;;;;;;;18.33;100.00;100198.22;5092649;28;20028;-62
2023/09/18 06:26:04;;;;;;;9.65;3.10;;;;;;;18.29;100.00;100210.88;5092383;28;20383;-66
2023/09/18 06:28:29;;;;;;;9.88;3.08;;;;;;;18.32;100.00;100215.22;5092487;28;20067;-61
2023/09/18 06:30:55;;;;;;;13.32;3.10;;;;;;;18.32;100.00;100207.19;5092748;28;20060;-63
2023/09/18 06:33:20;;;;;;;10.63;3.10;;;;;;;18.31;100.00;100207.25;5092124;28;20032;-61
2023/09/18 06:35:48;;;;;;;8.60;3.10;;;;;;;18.30;100.00;100211.72;5092310;28;20531;-60
2023/09/18 06:38:15;;;;;;;8.25;2.90;;;;;;;18.32;100.00;100220.59;5092773;28;20036;-60
2023/09/18 06:40:40;;;;;;;10.02;3.08;;;;;;;18.36;100.00;100215.97;5088242;28;20537;-61
2023/09/18 06:43:06;;;;;;;11.38;3.10;;;;;;;18.40;100.00;100230.97;5092326;28;20028;-61
2023/09/18 06:45:33;;;;;;;9.20;2.88;;;;;;;18.40;100.00;100218.47;5092231;28;20028;-61
2023/09/18 06:47:58;;;;;;;12.52;3.17;;;;;;;18.40;100.00;100226.50;5092424;28;20052;-61
2023/09/18 06:50:24;;;;;;;13.23;3.10;;;;;;;18.43;100.00;100231.72;5092145;28;20078;-63
2023/09/18 06:52:49;;;;;;;7.20;2.83;;;;;;;18.45;100.00;100243.25;5091391;28;20069;-61
2023/09/18 06:55:16;;;;;;;9.95;3.00;;;;;;;18.49;100.00;100227.09;5093440;28;20024;-60
2023/09/18 06:57:42;;;;;;;10.52;3.25;;;;;;;18.48;100.00;100252.97;5095867;28;20030;-61
2023/09/18 07:00:08;;;;;;;9.00;2.78;;;;;;;18.52;100.00;100253.72;5096142;28;20463;-60
2023/09/18 07:02:33;;;;;;;10.93;3.10;;;;;;;18.51;100.00;100249.28;5095459;28;20036;-60
2023/09/18 07:04:59;;;;;;;11.63;3.30;;;;;;;18.55;100.00;100248.25;5095655;28;20044;-60
2023/09/18 07:07:27;;;;;;;11.95;3.10;;;;;;;18.53;100.00;100236.75;5095740;28;20089;-61
2023/09/18 07:09:52;;;;;;;10.38;3.00;;;;;;;18.48;100.00;100236.94;5095739;28;20024;-77
2023/09/18 07:12:21;;;;;;;11.98;3.15;;;;;;;18.50;100.00;100244.91;5095674;28;20471;-73
2023/09/18 07:14:46;;;;;;;10.25;3.03;;;;;;;18.53;100.00;100255.47;5095834;28;20429;-60
2023/09/18 07:17:12;;;;;;;15.13;3.22;;;;;;;18.57;100.00;100244.59;5095545;28;20028;-60
2023/09/18 07:19:37;;;;;;;8.55;2.97;;;;;;;18.57;100.00;100252.63;5095536;28;20387;-61
2023/09/18 07:22:03;;;;;;;11.18;3.30;;;;;;;18.57;100.00;100259.78;5095997;28;20157;-60
2023/09/18 07:24:28;;;;;;;10.82;3.17;;;;;;;18.56;100.00;100256.22;5090906;28;20027;-61
2023/09/18 07:26:54;;;;;;;11.93;3.40;;;;;;;18.60;100.00;100254.31;5095517;28;20028;-61
2023/09/18 07:29:20;;;;;;;9.50;3.10;;;;;;;18.63;100.00;100246.16;5095737;28;20364;-60
2023/09/18 07:31:45;;;;;;;9.23;2.85;;;;;;;18.71;100.00;100260.13;5095582;28;20028;-61
2023/09/18 07:34:11;;;;;;;9.88;2.95;;;;;;;18.69;100.00;100263.78;5095516;28;20116;-62
2023/09/18 07:36:36;;;;;;;11.32;3.10;;;;;;;18.69;100.00;100259.31;5095335;28;20028;-62
2023/09/18 07:39:04;;;;;;;11.82;3.20;;;;;;;18.69;100.00;100261.97;5095302;28;20103;-61
2023/09/18 07:41:29;;;;;;;10.00;3.20;;;;;;;18.73;100.00;100270.78;5094955;28;20028;-60
2023/09/18 07:43:57;;;;;;;11.98;3.22;;;;;;;18.77;100.00;100264.34;5095115;28;20119;-61
2023/09/18 07:46:22;;;;;;;11.63;3.28;;;;;;;18.78;100.00;100258.94;5090923;28;20040;-60
2023/09/18 07:48:47;;;;;;;9.63;2.90;;;;;;;18.84;100.00;100271.22;5095457;28;20028;-62
2023/09/18 07:51:13;;;;;;;11.63;2.90;;;;;;;18.88;100.00;100262.16;5094928;28;20023;-60
2023/09/18 07:53:39;;;;;;;9.75;2.90;;;;;;;18.92;100.00;100262.94;5094727;28;20039;-61
2023/09/18 07:56:05;;;;;;;7.28;3.00;;;;;;;18.90;100.00;100264.78;5093898;28;20028;-64
2023/09/18 07:58:33;;;;;;;7.70;2.63;;;;;;;18.94;100.00;100258.38;5094583;28;20092;-64
2023/09/18 08:00:58;;;;;;;10.45;3.13;;;;;;;18.90;100.00;100249.59;5094773;28;20035;-64
2023/09/18 08:03:24;;;;;;;12.40;3.00;;;;;;;18.88;100.00;100240.75;5094525;28;20028;-63
2023/09/18 08:05:52;;;;;;;9.50;2.97;;;;;;;18.87;100.00;100249.69;5094326;28;20101;-64
2023/09/18 08:08:20;;;;;;;10.88;2.80;;;;;;;18.83;100.00;100253.44;5094437;28;20032;-64
2023/09/18 08:10:46;;;;;;;8.50;2.65;;;;;;;18.81;100.00;100277.59;5090920;28;20028;-64
2023/09/18 08:13:12;;;;;;;10.10;2.70;;;;;;;18.76;100.00;100271.53;5094863;28;20028;-63
2023/09/18 08:15:37;;;;;;;12.27;3.03;;;;;;;18.79;100.00;100262.50;5094916;28;20027;-64
2023/09/18 08:18:03;;;;;;;11.73;3.00;;;;;;;18.75;100.00;100260.88;5097281;28;20028;-75
2023/09/18 08:20:28;;;;;;;10.35;3.00;;;;;;;18.76;100.00;100263.50;5096877;28;20382;-71
2023/09/18 08:22:54;;;;;;;7.97;3.00;;;;;;;18.79;100.00;100263.38;5096039;28;20081;-69
2023/09/18 08:25:19;;;;;;;11.00;2.90;;;;;;;18.82;100.00;100271.28;5095575;28;20024;-75
2023/09/18 08:27:45;;;;;;;8.75;2.90;;;;;;;18.84;100.00;100260.50;5091832;28;20036;-72
2023/09/18 08:30:14;;;;;;;9.25;2.90;;;;;;;18.90;100.00;100278.16;5096743;28;20028;-69
2023/09/18 08:32:40;;;;;;;10.70;2.72;;;;;;;18.97;100.00;100272.53;5096349;28;20024;-74
2023/09/18 08:35:06;;;;;;;12.15;3.10;;;;;;;19.08;100.00;100285.50;5096271;28;20056;-66
2023/09/18 08:37:32;;;;;;;9.52;2.92;;;;;;;19.07;100.00;100299.81;5095230;28;20059;-72
2023/09/18 08:39:57;;;;;;;12.45;3.13;;;;;;;19.10;100.00;100293.47;5095451;28;20032;-70
2023/09/18 08:42:23;;;;;;;11.65;3.10;;;;;;;19.14;100.00;100295.94;5094999;28;20036;-75
2023/09/18 08:44:51;;;;;;;11.65;3.30;;;;;;;19.20;100.00;100310.91;5094782;28;20028;-75
2023/09/18 08:47:18;;;;;;;13.10;3.00;;;;;;;19.30;100.00;100308.75;5092366;28;20073;-75
2023/09/18 08:49:48;;;;;;;12.35;3.10;;;;;;;19.29;100.00;100299.81;5095082;28;20422;-74
2023/09/18 08:52:15;;;;;;;12.02;3.20;;;;;;;19.45;100.00;100299.19;5094490;28;20390;-72
2023/09/18 08:54:42;;;;;;;11.18;3.00;;;;;;;19.55;100.00;100294.34;5096259;28;20020;-75
2023/09/18 08:57:08;;;;;;;12.73;3.00;;;;;;;19.65;100.00;100288.50;5095246;28;20066;-75
2023/09/18 08:59:35;;;;;;;10.38;3.00;;;;;;;19.98;100.00;100289.84;5094835;28;20036;-73
2023/09/18 09:02:01;;;;;;;11.55;3.08;;;;;;;20.47;100.00;100290.34;5095820;28;20047;-73
2023/09/18 09:04:27;;;;;;;10.65;2.97;;;;;;;20.57;100.00;100293.47;5093056;28;20051;-75
2023/09/18 09:06:52;;;;;;;8.63;2.90;;;;;;;20.73;100.00;100280.25;5094580;28;20509;-65
2023/09/18 09:09:19;;;;;;;8.70;3.00;;;;;;;21.19;100.00;100286.13;5094950;28;20053;-75
2023/09/18 09:11:51;;;;;;;11.02;2.90;;;;;;;21.41;100.00;100280.53;5094461;28;20375;-75
2023/09/18 09:14:18;;;;;;;12.45;3.28;;;;;;;21.44;100.00;100290.28;5089811;28;20028;-67
2023/09/18 09:16:48;;;;;;;8.73;3.00;;;;;;;21.54;100.00;100282.66;5093838;28;20028;-67
2023/09/18 09:19:15;;;;;;;7.70;2.90;;;;;;;21.90;100.00;100288.00;5092805;28;20057;-69
2023/09/18 09:21:43;;;;;;;13.15;3.38;;;;;;;22.26;100.00;100288.81;5094493;28;20050;-69
2023/09/18 09:24:11;;;;;;;14.75;3.40;;;;;;;21.84;100.00;100301.72;5094019;28;20024;-70
2023/09/18 09:26:37;;;;;;;11.70;3.20;;;;;;;21.49;100.00;100306.19;5093901;28;20036;-66
2023/09/18 09:29:18;;;;;;;12.77;3.20;;;;;;;21.16;100.00;100313.13;5093776;28;20024;-72
2023/09/18 09:31:44;;;;;;;13.73;3.70;;;;;;;21.26;100.00;100302.81;5093958;28;20496;-69
2023/09/18 09:34:09;;;;;;;12.45;3.40;;;;;;;21.52;100.00;100303.38;5093931;28;20095;-72
2023/09/18 09:36:34;;;;;;;13.65;3.40;;;;;;;21.74;100.00;100301.34;5091931;28;20105;-69
2023/09/18 09:39:00;;;;;;;12.93;3.65;;;;;;;21.73;100.00;100296.06;5093237;28;20032;-70
2023/09/18 09:41:27;;;;;;;10.93;3.30;;;;;;;21.47;100.00;100318.84;5093238;28;20116;-74
2023/09/18 09:43:54;;;;;;;13.98;3.70;;;;;;;21.13;100.00;100320.47;5092869;28;20024;-73
2023/09/18 09:46:21;;;;;;;12.40;3.40;;;;;;;21.00;100.00;100298.69;5093284;28;20020;-70
2023/09/18 09:49:05;;;;;;;12.73;3.35;;;;;;;21.58;100.00;100303.94;5093446;28;20463;-67
2023/09/18 09:51:32;;;;;;;12.05;3.70;;;;;;;21.62;100.00;100301.09;5093160;28;20036;-64
2023/09/18 09:54:00;;;;;;;13.18;3.25;;;;;;;21.56;100.00;100308.50;5092973;28;20360;-64
2023/09/18 09:56:47;;;;;;;14.18;3.55;;;;;;;21.26;100.00;100294.75;5093117;28;20024;-64
2023/09/18 09:59:15;;;;;;;11.25;3.25;;;;;;;21.02;100.00;100299.50;5089449;28;20027;-64
2023/09/18 10:01:41;;;;;;;10.13;3.20;;;;;;;21.06;100.00;100303.78;5093071;28;20032;-64
2023/09/18 10:04:12;;;;;;;11.40;3.20;;;;;;;20.95;100.00;100316.84;5092578;28;20031;-63
2023/09/18 10:06:43;;;;;;;13.30;3.35;;;;;;;21.15;100.00;100321.28;5088542;28;20147;-64
2023/09/18 10:09:10;;;;;;;11.95;3.40;;;;;;;21.24;100.00;100321.69;5088919;28;20498;-64
2023/09/18 10:11:44;;;;;;;15.25;3.53;;;;;;;21.38;100.00;100326.41;5092852;28;20538;-64
2023/09/18 10:14:16;;;;;;;10.32;3.20;;;;;;;21.32;100.00;100329.41;5088949;28;20108;-63
2023/09/18 10:16:44;;;;;;;;;;;;;;;21.51;100.00;100310.56;5089587;28;20028;-63
2023/09/18 10:19:28;;;;;;;12.48;3.63;;;;;;;21.49;100.00;100338.44;5082760;28;19913;-63
2023/09/18 10:22:13;;;;;;;15.68;3.60;;;;;;;22.16;100.00;100326.09;5081359;28;20055;-61
2023/09/18 10:24:41;;;;;;;12.07;3.25;;;;;;;23.43;100.00;100303.97;5081039;28;20366;-62
2023/09/18 10:27:09;;;;;;;11.50;3.28;;;;;;;24.59;100.00;100305.19;5087328;28;20483;-62
2023/09/18 10:29:36;;;;;;;9.80;3.15;;;;;;;24.60;100.00;100314.16;5092529;28;20051;-62
2023/09/18 10:32:09;;;;;;;11.18;3.10;;;;;;;24.25;100.00;100323.44;5096683;28;20082;-61
2023/09/18 10:34:35;;;;;;;11.75;3.17;;;;;;;23.71;100.00;100323.94;5096255;28;20146;-62
2023/09/18 10:37:06;;;;;;;10.77;3.28;;;;;;;23.58;100.00;100326.47;5096743;28;20036;-62
2023/09/18 10:39:35;;;;;;;12.95;3.33;;;;;;;22.82;100.00;100308.28;5096344;28;20046;-63
2023/09/18 10:42:02;;;;;;;13.32;3.50;;;;;;;22.24;100.00;100323.91;5094211;28;20020;-62
2023/09/18 10:44:28;;;;;;;12.18;3.67;;;;;;;21.95;100.00;100322.72;5096393;28;20035;-61
2023/09/18 10:46:55;;;;;;;13.20;3.90;;;;;;;21.65;100.00;100327.84;5096120;28;20082;-60
2023/09/18 10:49:21;;;;;;;12.20;3.88;;;;;;;21.57;100.00;100328.22;5096541;28;20028;-68
2023/09/18 10:51:47;;;;;;;13.43;4.10;;;;;;;21.42;100.00;100327.09;5096252;28;20034;-68
2023/09/18 10:54:19;;;;;;;13.60;4.15;;;;;;;21.38;100.00;100322.84;5096016;28;20031;-63
2023/09/18 10:56:45;;;;;;;16.75;4.32;;;;;;;21.42;100.00;100316.34;5096418;28;20374;-63
2023/09/18 10:59:10;;;;;;;13.18;4.18;;;;;;;21.37;100.00;100315.72;5091252;28;20024;-67
2023/09/18 11:01:36;;;;;;;17.25;4.57;;;;;;;21.71;100.00;100317.66;5085077;28;20438;-71
2023/09/18 11:04:09;;;;;;;13.90;4.30;;;;;;;21.96;100.00;100315.50;5085434;28;20035;-71
2023/09/18 11:06:53;;;;;;;16.50;4.22;;;;;;;22.40;100.00;100315.06;5088205;28;20086;-63